createdAt,value
2023-02-25T00:01:14.439Z,100956.72
2023-02-25T00:03:41.499Z,100950.69
2023-02-25T00:06:13.359Z,100945.63
2023-02-25T00:08:43.178Z,100947.59
2023-02-25T00:11:10.063Z,100960.25
2023-02-25T00:13:38.680Z,100962.25
2023-02-25T00:16:06.739Z,100959.84
2023-02-25T00:18:33.744Z,100965.34
2023-02-25T00:21:00.316Z,100954.78
2023-02-25T00:23:26.866Z,100962.09
2023-02-25T00:26:05.753Z,100955.19
2023-02-25T00:28:33.919Z,100952.53
2023-02-25T00:31:05.431Z,100957.19
2023-02-25T00:33:31.980Z,100950.28
2023-02-25T00:35:58.470Z,100951.25
2023-02-25T00:38:24.991Z,100947.75
2023-02-25T00:40:51.462Z,100947.03
2023-02-25T00:43:17.975Z,100956.88
2023-02-25T00:45:44.485Z,100953.50
2023-02-25T00:48:11.027Z,100962.66
2023-02-25T00:50:39.555Z,100964.63
2023-02-25T00:53:06.125Z,100967.44
2023-02-25T00:55:33.366Z,100966.59
2023-02-25T00:58:02.829Z,100973.06
2023-02-25T01:00:30.482Z,100968.81
2023-02-25T01:02:57.939Z,100965.31
2023-02-25T01:05:25.396Z,100961.78
2023-02-25T01:07:52.055Z,100964.63
2023-02-25T01:10:19.009Z,100972.75
2023-02-25T01:12:45.794Z,100977.25
2023-02-25T01:15:13.147Z,100972.06
2023-02-25T01:17:39.714Z,100975.72
2023-02-25T01:20:11.345Z,100980.34
2023-02-25T01:22:41.572Z,100978.66
2023-02-25T01:25:13.098Z,100977.81
2023-02-25T01:27:40.016Z,100977.09
2023-02-25T01:30:08.117Z,100973.75
2023-02-25T01:32:34.881Z,100976.41
2023-02-25T01:35:02.192Z,100976.69
2023-02-25T01:37:28.832Z,100975.00
2023-02-25T01:39:55.488Z,100974.28
2023-02-25T01:42:22.266Z,100969.91
2023-02-25T01:45:24.391Z,100974.69
2023-02-25T01:48:05.131Z,100971.88
2023-02-25T01:50:37.434Z,100969.34
2023-02-25T01:53:05.866Z,100973.84
2023-02-25T01:55:33.079Z,100974.00
2023-02-25T01:58:00.753Z,100973.28
2023-02-25T02:00:30.541Z,100974.25
2023-02-25T02:02:58.053Z,100981.44
2023-02-25T02:05:37.567Z,100976.22
2023-02-25T02:08:05.583Z,100974.38
2023-02-25T02:10:32.103Z,100976.22
2023-02-25T02:12:58.719Z,100974.53
2023-02-25T02:15:25.266Z,100965.66
2023-02-25T02:18:03.154Z,100965.81
2023-02-25T02:21:02.808Z,100965.94
2023-02-25T02:23:54.107Z,100965.09
2023-02-25T02:26:49.721Z,100979.28
2023-02-25T02:29:32.130Z,100976.63
2023-02-25T02:32:15.330Z,100976.63
2023-02-25T02:34:47.134Z,100968.75
2023-02-25T02:37:13.598Z,100957.22
2023-02-25T02:39:44.918Z,100963.41
2023-02-25T02:42:16.910Z,100966.19
2023-02-25T02:44:55.457Z,100967.19
2023-02-25T02:47:28.224Z,100969.00
2023-02-25T02:50:02.744Z,100972.69
2023-02-25T02:52:33.061Z,100975.34
2023-02-25T02:55:06.906Z,100971.84
2023-02-25T02:57:36.802Z,100985.19
2023-02-25T03:00:17.749Z,100986.16
2023-02-25T03:03:38.699Z,100985.31
2023-02-25T03:06:10.391Z,100987.03
2023-02-25T03:09:18.577Z,100978.44
2023-02-25T03:11:45.482Z,100972.94
2023-02-25T03:14:13.203Z,100979.28
2023-02-25T03:16:46.725Z,100980.25
2023-02-25T03:19:18.512Z,100971.38
2023-02-25T03:22:27.802Z,100980.38
2023-02-25T03:24:58.079Z,100978.53
2023-02-25T03:27:34.322Z,100987.56
2023-02-25T03:30:16.764Z,100976.88
2023-02-25T03:32:47.761Z,100987.56
2023-02-25T03:35:17.436Z,100984.03
2023-02-25T03:37:48.947Z,100982.34
2023-02-25T03:40:18.203Z,100981.50
2023-02-25T03:42:52.394Z,101002.03
2023-02-25T03:45:21.459Z,101005.56
2023-02-25T03:47:48.296Z,100986.97
2023-02-25T03:50:21.717Z,100995.00
2023-02-25T03:52:48.436Z,101001.19
2023-02-25T03:55:17.150Z,100996.81
2023-02-25T03:57:45.950Z,101007.50
2023-02-25T04:00:23.089Z,101001.41
2023-02-25T04:02:50.415Z,101014.75
2023-02-25T04:05:19.030Z,101009.41
2023-02-25T04:07:45.982Z,101013.06
2023-02-25T04:10:14.968Z,101016.75
2023-02-25T04:12:41.975Z,101013.22
2023-02-25T04:15:09.326Z,101014.22
2023-02-25T04:17:37.216Z,101014.22
2023-02-25T04:20:05.124Z,101014.22
2023-02-25T04:22:32.172Z,101011.66
2023-02-25T04:24:58.826Z,101016.00
2023-02-25T04:27:26.368Z,101017.84
2023-02-25T04:29:52.878Z,101018.81
2023-02-25T04:32:19.431Z,101017.16
2023-02-25T04:34:46.054Z,101022.34
2023-02-25T04:37:12.573Z,101026.00
2023-02-25T04:39:39.081Z,101023.31
2023-02-25T04:42:05.661Z,101028.53
2023-02-25T04:44:32.160Z,101029.50
2023-02-25T04:46:58.671Z,101022.47
2023-02-25T04:49:25.228Z,101030.34
2023-02-25T04:51:52.043Z,101030.50
2023-02-25T04:54:19.799Z,101038.50
2023-02-25T04:56:46.740Z,101039.50
2023-02-25T04:59:14.041Z,101048.34
2023-02-25T05:01:41.013Z,101044.84
2023-02-25T05:04:07.721Z,101048.47
2023-02-25T05:06:34.772Z,101053.81
2023-02-25T05:09:01.340Z,101048.47
2023-02-25T05:11:29.067Z,101045.94
2023-02-25T05:13:55.945Z,101046.09
2023-02-25T05:16:23.851Z,101042.53
2023-02-25T05:18:50.737Z,101043.41
2023-02-25T05:21:20.156Z,101037.19
2023-02-25T05:23:48.462Z,101044.38
2023-02-25T05:26:17.140Z,101050.69
2023-02-25T05:28:43.877Z,101052.53
2023-02-25T05:31:12.213Z,101046.34
2023-02-25T05:33:40.083Z,101047.19
2023-02-25T05:36:09.036Z,101047.34
2023-02-25T05:38:36.794Z,101049.00
2023-02-25T05:41:05.949Z,101050.84
2023-02-25T05:43:32.862Z,101050.97
2023-02-25T05:46:01.547Z,101050.13
2023-02-25T05:48:28.013Z,101043.09
2023-02-25T05:51:01.696Z,101044.78
2023-02-25T05:53:28.272Z,101035.91
2023-02-25T05:55:55.711Z,101039.44
2023-02-25T05:58:22.994Z,101039.44
2023-02-25T06:00:49.703Z,101045.75
2023-02-25T06:03:16.791Z,101049.28
2023-02-25T06:05:44.073Z,101054.75
2023-02-25T06:08:11.712Z,101052.09
2023-02-25T06:10:41.415Z,101061.94
2023-02-25T06:13:09.444Z,101059.25
2023-02-25T06:15:40.618Z,101062.88
2023-02-25T06:18:07.756Z,101067.28
2023-02-25T06:20:35.295Z,101071.75
2023-02-25T06:23:02.818Z,101070.06
2023-02-25T06:25:29.941Z,101078.06
2023-02-25T06:27:57.612Z,101076.38
2023-02-25T06:30:24.772Z,101071.19
2023-02-25T06:32:51.822Z,101079.06
2023-02-25T06:35:20.964Z,101084.53
2023-02-25T06:37:47.582Z,101086.34
2023-02-25T06:40:15.222Z,101083.66
2023-02-25T06:42:42.075Z,101080.16
2023-02-25T06:45:09.044Z,101094.50
2023-02-25T06:47:35.556Z,101089.16
2023-02-25T06:50:02.742Z,101088.31
2023-02-25T06:52:29.476Z,101096.31
2023-02-25T06:54:56.053Z,101092.81
2023-02-25T06:57:22.656Z,101102.63
2023-02-25T06:59:49.365Z,101097.31
2023-02-25T07:02:16.306Z,101099.13
2023-02-25T07:04:44.037Z,101107.97
2023-02-25T07:07:10.917Z,101107.13
2023-02-25T07:09:37.434Z,101109.81
2023-02-25T07:12:04.259Z,101116.84
2023-02-25T07:14:30.863Z,101122.28
2023-02-25T07:16:57.402Z,101125.84
2023-02-25T07:19:23.905Z,101118.66
2023-02-25T07:21:50.419Z,101120.50
2023-02-25T07:24:17.485Z,101121.34
2023-02-25T07:26:44.027Z,101117.69
2023-02-25T07:29:10.755Z,101127.38
2023-02-25T07:31:37.376Z,101126.53
2023-02-25T07:34:04.436Z,101134.41
2023-02-25T07:36:37.487Z,101132.63
2023-02-25T07:39:06.759Z,101136.97
2023-02-25T07:41:33.334Z,101139.50
2023-02-25T07:43:59.979Z,101136.72
2023-02-25T07:46:27.267Z,101142.91
2023-02-25T07:48:53.833Z,101149.09
2023-02-25T07:51:22.995Z,101148.94
2023-02-25T07:53:51.089Z,101155.97
2023-02-25T07:56:19.394Z,101158.53
2023-02-25T07:58:46.199Z,101158.41
2023-02-25T08:01:26.618Z,101156.47
2023-02-25T08:03:55.516Z,101156.31
2023-02-25T08:06:22.351Z,101170.28
2023-02-25T08:08:51.953Z,101171.13
2023-02-25T08:11:20.304Z,101168.28
2023-02-25T08:13:47.325Z,101170.00
2023-02-25T08:16:16.865Z,101178.03
2023-02-25T08:18:43.660Z,101181.53
2023-02-25T08:21:11.930Z,101194.06
2023-02-25T08:23:38.849Z,101186.88
2023-02-25T08:26:06.417Z,101197.56
2023-02-25T08:28:36.955Z,101194.06
2023-02-25T08:31:04.039Z,101205.59
2023-02-25T08:33:30.958Z,101210.94
2023-02-25T08:36:12.782Z,101196.72
2023-02-25T08:38:39.805Z,101204.59
2023-02-25T08:41:07.749Z,101203.75
2023-02-25T08:43:35.431Z,101197.44
2023-02-25T08:46:02.211Z,101201.94
2023-02-25T08:48:29.116Z,101198.28
2023-02-25T08:50:55.697Z,101206.28
2023-02-25T08:53:23.386Z,101210.56
2023-02-25T08:55:51.339Z,101207.75
2023-02-25T08:58:17.941Z,101212.16
2023-02-25T09:00:44.501Z,101209.34
2023-02-25T09:03:11.121Z,101212.84
2023-02-25T09:05:38.080Z,101214.53
2023-02-25T09:08:04.970Z,101218.94
2023-02-25T09:10:48.352Z,101230.59
2023-02-25T09:15:43.853Z,101241.03
2023-02-25T09:18:11.678Z,101235.66
2023-02-25T09:20:38.315Z,101242.72
2023-02-25T09:23:04.967Z,101245.38
2023-02-25T09:25:31.760Z,101250.72
2023-02-25T09:27:58.305Z,101253.28
2023-02-25T09:30:24.816Z,101255.97
2023-02-25T09:32:51.844Z,101261.31
2023-02-25T09:35:18.509Z,101257.78
2023-02-25T09:37:44.990Z,101268.19
2023-02-25T09:40:17.933Z,101279.47
2023-02-25T09:43:07.618Z,101275.56
2023-02-25T09:45:36.295Z,101284.19
2023-02-25T09:48:19.776Z,101302.06
2023-02-25T09:50:53.644Z,101307.41
2023-02-25T09:53:39.347Z,101311.06
2023-02-25T09:56:08.182Z,101308.50
2023-02-25T09:58:44.609Z,101304.97
2023-02-25T10:01:11.081Z,101300.47
2023-02-25T10:04:05.636Z,101304.13
2023-02-25T10:07:01.492Z,101311.44
2023-02-25T10:10:01.882Z,101317.50
2023-02-25T10:12:40.472Z,101317.50
2023-02-25T10:15:53.342Z,101315.66
2023-02-25T10:18:38.147Z,101311.91
2023-02-25T10:21:17.379Z,101322.47
2023-02-25T10:24:13.962Z,101332.06
2023-02-25T10:26:46.572Z,101331.81
2023-02-25T10:29:28.444Z,101316.22
2023-02-25T10:32:00.004Z,101329.94
2023-02-25T10:34:31.097Z,101326.63
2023-02-25T10:37:00.209Z,101329.34
2023-02-25T10:39:28.620Z,101327.72
2023-02-25T10:41:55.328Z,101343.97
2023-02-25T10:44:22.014Z,101350.50
2023-02-25T10:47:00.568Z,101347.28
2023-02-25T10:49:30.122Z,101350.28
2023-02-25T10:52:03.379Z,101359.63
2023-02-25T10:54:47.736Z,101358.38
2023-02-25T10:57:16.801Z,101348.16
2023-02-25T10:59:45.234Z,101355.91
2023-02-25T11:02:31.469Z,101352.09
2023-02-25T11:04:58.355Z,101381.31
2023-02-25T11:07:33.101Z,101381.31
2023-02-25T11:10:19.515Z,101387.66
2023-02-25T11:12:48.312Z,101389.47
2023-02-25T11:15:44.865Z,101389.59
2023-02-25T11:18:29.322Z,101394.09
2023-02-25T11:21:07.234Z,101392.28
2023-02-25T11:23:35.825Z,101396.63
2023-02-25T11:26:03.138Z,101395.78
2023-02-25T11:28:34.455Z,101399.31
2023-02-25T11:31:10.283Z,101399.31
2023-02-25T11:33:40.515Z,101392.16
2023-02-25T11:36:07.919Z,101409.06
2023-02-25T11:38:40.069Z,101410.75
2023-02-25T11:41:17.684Z,101404.56
2023-02-25T11:43:44.515Z,101391.88
2023-02-25T11:46:32.692Z,101404.28
2023-02-25T11:49:20.641Z,101394.28
2023-02-25T11:52:35.914Z,101385.41
2023-02-25T11:55:22.412Z,101392.19
2023-02-25T11:57:48.857Z,101387.53
2023-02-25T12:01:06.473Z,101385.00
2023-02-25T12:04:04.084Z,101392.91
2023-02-25T12:06:52.598Z,101386.44
2023-02-25T12:09:34.000Z,101389.84
2023-02-25T12:12:20.207Z,101397.88
2023-02-25T12:14:58.711Z,101396.88
2023-02-25T12:18:00.897Z,101390.53
2023-02-25T12:20:50.142Z,101390.53
2023-02-25T12:23:43.659Z,101396.63
2023-02-25T12:26:20.690Z,101396.47
2023-02-25T12:28:50.970Z,101403.53
2023-02-25T12:31:47.260Z,101399.88
2023-02-25T12:34:32.072Z,101399.88
2023-02-25T12:37:48.179Z,101405.25
2023-02-25T12:40:27.412Z,101404.09
2023-02-25T12:43:09.271Z,101417.50
2023-02-25T12:45:38.822Z,101412.88
2023-02-25T12:48:35.130Z,101411.16
2023-02-25T12:51:14.779Z,101413.72
2023-02-25T12:53:57.717Z,101420.75
2023-02-25T12:56:36.580Z,101422.59
2023-02-25T12:59:30.725Z,101424.19
2023-02-25T13:02:35.344Z,101441.94
2023-02-25T13:05:20.596Z,101432.91
2023-02-25T13:08:11.542Z,101443.47
2023-02-25T13:10:41.273Z,101461.38
2023-02-25T13:13:19.997Z,101449.81
2023-02-25T13:16:15.292Z,101447.03
2023-02-25T13:19:00.263Z,101459.28
2023-02-25T13:21:44.291Z,101446.75
2023-02-25T13:24:34.048Z,101452.94
2023-02-25T13:27:27.699Z,101453.69
2023-02-25T13:30:12.128Z,101458.03
2023-02-25T13:32:56.656Z,101447.31
2023-02-25T13:35:42.578Z,101452.69
2023-02-25T13:38:36.936Z,101449.00
2023-02-25T13:41:11.292Z,101462.56
2023-02-25T13:43:56.638Z,101453.53
2023-02-25T13:46:42.680Z,101456.22
2023-02-25T13:49:49.963Z,101473.41
2023-02-25T13:52:44.181Z,101468.06
2023-02-25T13:55:24.032Z,101469.59
2023-02-25T13:58:23.680Z,101479.38
2023-02-25T14:01:27.175Z,101481.75
2023-02-25T14:04:12.259Z,101481.50
2023-02-25T14:07:13.310Z,101487.69
2023-02-25T14:10:12.497Z,101491.94
2023-02-25T14:13:11.834Z,101477.56
2023-02-25T14:15:56.624Z,101480.13
2023-02-25T14:18:44.814Z,101478.28
2023-02-25T14:21:56.819Z,101483.50
2023-02-25T14:24:42.193Z,101495.91
2023-02-25T14:27:31.258Z,101498.75
2023-02-25T14:30:18.684Z,101497.91
2023-02-25T14:32:57.460Z,101513.97
2023-02-25T14:35:59.235Z,101527.47
2023-02-25T14:39:04.302Z,101521.28
2023-02-25T14:41:54.064Z,101523.00
2023-02-25T14:44:35.515Z,101537.34
2023-02-25T14:47:16.410Z,101540.19
2023-02-25T14:49:54.802Z,101535.66
2023-02-25T14:52:41.523Z,101539.34
2023-02-25T14:55:08.040Z,101541.19
2023-02-25T14:57:44.117Z,101543.00
2023-02-25T15:00:24.718Z,101544.94
2023-02-25T15:03:09.516Z,101554.97
2023-02-25T15:06:07.142Z,101547.78
2023-02-25T15:08:58.546Z,101565.53
2023-02-25T15:11:37.550Z,101561.28
2023-02-25T15:14:25.767Z,101568.47
2023-02-25T15:17:20.328Z,101566.19
2023-02-25T15:20:22.336Z,101578.00
2023-02-25T15:23:07.405Z,101573.78
2023-02-25T15:25:38.824Z,101595.22
2023-02-25T15:28:31.292Z,101586.44
2023-02-25T15:31:01.049Z,101589.13
2023-02-25T15:33:33.955Z,101585.75
2023-02-25T15:36:19.560Z,101592.78
2023-02-25T15:38:47.331Z,101608.88
2023-02-25T15:41:29.383Z,101599.00
2023-02-25T15:44:00.313Z,101608.22
2023-02-25T15:46:35.986Z,101618.03
2023-02-25T15:49:27.693Z,101628.66
2023-02-25T15:51:59.764Z,101618.47
2023-02-25T15:54:32.036Z,101621.56
2023-02-25T15:57:01.230Z,101625.44
2023-02-25T15:59:44.160Z,101627.63
2023-02-25T16:02:34.703Z,101622.75
2023-02-25T16:05:09.975Z,101625.91
2023-02-25T16:07:40.186Z,101625.66
2023-02-25T16:10:23.897Z,101630.63
2023-02-25T16:12:53.914Z,101639.44
2023-02-25T16:15:38.376Z,101639.00
2023-02-25T16:18:22.031Z,101646.66
2023-02-25T16:20:52.875Z,101644.53
2023-02-25T16:23:19.830Z,101649.78
2023-02-25T16:25:46.305Z,101648.94
2023-02-25T16:28:40.580Z,101660.09
2023-02-25T16:31:16.117Z,101660.22
2023-02-25T16:33:53.571Z,101668.44
2023-02-25T16:36:44.197Z,101670.81
2023-02-25T16:39:26.308Z,101669.66
2023-02-25T16:41:53.014Z,101681.78
2023-02-25T16:44:32.947Z,101677.09
2023-02-25T16:46:59.481Z,101674.84
2023-02-25T16:49:36.841Z,101678.06
2023-02-25T16:52:04.571Z,101683.84
2023-02-25T16:54:38.093Z,101694.13
2023-02-25T16:57:09.657Z,101701.59
2023-02-25T16:59:38.494Z,101695.66
2023-02-25T17:02:17.161Z,101701.56
2023-02-25T17:04:49.230Z,101708.03
2023-02-25T17:07:25.189Z,101709.28
2023-02-25T17:09:56.180Z,101708.56
2023-02-25T17:12:43.644Z,101707.13
2023-02-25T17:15:29.103Z,101711.94
2023-02-25T17:18:05.882Z,101714.63
2023-02-25T17:20:32.946Z,101710.22
2023-02-25T17:23:05.491Z,101714.03
2023-02-25T17:25:38.838Z,101721.25
2023-02-25T17:28:07.633Z,101719.66
2023-02-25T17:30:37.156Z,101727.84
2023-02-25T17:33:04.918Z,101735.16
2023-02-25T17:35:32.840Z,101733.47
2023-02-25T17:37:59.602Z,101739.81
2023-02-25T17:40:28.573Z,101740.94
2023-02-25T17:43:44.171Z,101737.78
2023-02-25T17:46:15.241Z,101738.66
2023-02-25T17:48:45.695Z,101745.09
2023-02-25T17:51:13.668Z,101747.94
2023-02-25T17:53:51.239Z,101747.19
2023-02-25T17:56:25.485Z,101759.91
2023-02-25T17:58:57.862Z,101760.84
2023-02-25T18:01:28.775Z,101762.84
2023-02-25T18:03:55.779Z,101758.47
2023-02-25T18:06:44.637Z,101764.91
2023-02-25T18:09:35.922Z,101770.38
2023-02-25T18:12:05.815Z,101772.97
2023-02-25T18:14:37.067Z,101773.91
2023-02-25T18:17:13.474Z,101782.94
2023-02-25T18:19:44.406Z,101785.63
2023-02-25T18:22:36.946Z,101787.56
2023-02-25T18:25:08.144Z,101801.72
2023-02-25T18:27:37.639Z,101799.03
2023-02-25T18:30:19.345Z,101799.16
2023-02-25T18:32:46.975Z,101798.28
2023-02-25T18:35:14.220Z,101802.81
2023-02-25T18:37:43.336Z,101808.19
2023-02-25T18:40:40.747Z,101815.75
2023-02-25T18:43:07.647Z,101814.63
2023-02-25T18:45:34.661Z,101815.63
2023-02-25T18:48:01.754Z,101822.97
2023-02-25T18:50:33.621Z,101818.53
2023-02-25T18:53:00.879Z,101828.44
2023-02-25T18:55:32.866Z,101832.19
2023-02-25T18:58:01.111Z,101834.88
2023-02-25T19:00:27.785Z,101830.63
2023-02-25T19:02:58.008Z,101835.16
2023-02-25T19:05:25.608Z,101834.31
2023-02-25T19:07:52.627Z,101830.88
2023-02-25T19:10:25.280Z,101830.03
2023-02-25T19:12:59.029Z,101834.56
2023-02-25T19:15:25.489Z,101837.47
2023-02-25T19:17:52.033Z,101842.59
2023-02-25T19:20:20.530Z,101842.69
2023-02-25T19:22:49.464Z,101845.53
2023-02-25T19:25:29.010Z,101850.88
2023-02-25T19:27:56.900Z,101842.13
2023-02-25T19:30:25.977Z,101853.81
2023-02-25T19:32:53.001Z,101852.09
2023-02-25T19:35:19.740Z,101848.59
2023-02-25T19:37:46.313Z,101847.72
2023-02-25T19:40:15.400Z,101847.84
2023-02-25T19:42:43.710Z,101847.00
2023-02-25T19:45:16.762Z,101863.22
2023-02-25T19:47:43.678Z,101859.69
2023-02-25T19:50:11.627Z,101858.00
2023-02-25T19:52:38.961Z,101861.63
2023-02-25T19:55:06.555Z,101859.91
2023-02-25T19:57:33.592Z,101866.28
2023-02-25T20:00:00.355Z,101867.13
2023-02-25T20:02:26.870Z,101873.47
2023-02-25T20:04:53.402Z,101870.88
2023-02-25T20:07:19.942Z,101877.22
2023-02-25T20:09:46.588Z,101881.75
2023-02-25T20:12:14.061Z,101879.19
2023-02-25T20:14:40.626Z,101880.88
2023-02-25T20:17:07.279Z,101871.63
2023-02-25T20:19:34.485Z,101878.91
2023-02-25T20:22:02.874Z,101875.38
2023-02-25T20:24:30.518Z,101875.91
2023-02-25T20:26:57.092Z,101880.28
2023-02-25T20:29:24.032Z,101889.06
2023-02-25T20:31:50.724Z,101889.72
2023-02-25T20:34:21.307Z,101887.00
2023-02-25T20:36:56.775Z,101894.72
2023-02-25T20:39:38.471Z,101890.97
2023-02-25T20:42:05.761Z,101894.59
2023-02-25T20:44:32.773Z,101898.94
2023-02-25T20:46:59.548Z,101898.28
2023-02-25T20:49:26.338Z,101898.31
2023-02-25T20:51:53.278Z,101902.91
2023-02-25T20:54:20.250Z,101905.03
2023-02-25T20:56:48.366Z,101908.91
2023-02-25T20:59:16.036Z,101902.84
2023-02-25T21:01:42.847Z,101902.19
2023-02-25T21:04:10.300Z,101914.09
2023-02-25T21:06:38.204Z,101918.06
2023-02-25T21:09:06.712Z,101916.66
2023-02-25T21:11:33.740Z,101920.66
2023-02-25T21:14:00.281Z,101927.31
2023-02-25T21:16:27.165Z,101931.34
2023-02-25T21:18:54.110Z,101927.38
2023-02-25T21:21:21.754Z,101938.56
2023-02-25T21:23:49.303Z,101936.31
2023-02-25T21:26:16.156Z,101935.88
2023-02-25T21:28:42.907Z,101939.31
2023-02-25T21:31:12.349Z,101932.19
2023-02-25T21:33:40.455Z,101940.84
2023-02-25T21:36:09.043Z,101943.81
2023-02-25T21:38:36.871Z,101949.44
2023-02-25T21:41:14.286Z,101950.25
2023-02-25T21:43:41.967Z,101954.63
2023-02-25T21:46:11.765Z,101945.78
2023-02-25T21:48:39.753Z,101949.81
2023-02-25T21:51:07.720Z,101962.50
2023-02-25T21:53:34.243Z,101967.09
2023-02-25T21:56:17.359Z,101964.19
2023-02-25T21:58:44.674Z,101975.72
2023-02-25T22:01:23.203Z,101981.50
2023-02-25T22:03:49.873Z,101975.94
2023-02-25T22:06:17.035Z,101980.34
2023-02-25T22:08:45.634Z,101975.91
2023-02-25T22:11:17.823Z,101984.84
2023-02-25T22:13:45.052Z,101980.94
2023-02-25T22:16:14.911Z,101988.06
2023-02-25T22:18:42.224Z,101986.84
2023-02-25T22:21:15.115Z,101989.31
2023-02-25T22:23:43.516Z,101989.78
2023-02-25T22:26:15.798Z,101993.91
2023-02-25T22:28:43.402Z,101993.56
2023-02-25T22:31:11.986Z,101987.81
2023-02-25T22:33:39.038Z,101997.22
2023-02-25T22:36:07.296Z,102002.22
2023-02-25T22:38:37.473Z,102002.72
2023-02-25T22:41:05.526Z,102003.91
2023-02-25T22:43:33.456Z,102000.72
2023-02-25T22:46:09.078Z,102002.19
2023-02-25T22:48:36.946Z,102005.13
2023-02-25T22:51:03.692Z,102002.91
2023-02-25T22:53:30.528Z,102005.94
2023-02-25T22:56:09.118Z,102006.31
2023-02-25T22:58:38.694Z,101999.34
2023-02-25T23:01:05.528Z,101998.72
2023-02-25T23:03:32.039Z,102000.94
2023-02-25T23:05:58.512Z,102002.00
2023-02-25T23:08:25.120Z,102004.09
2023-02-25T23:10:51.812Z,102012.44
2023-02-25T23:13:20.030Z,102004.53
2023-02-25T23:15:47.867Z,102010.25
2023-02-25T23:18:15.763Z,102011.47
2023-02-25T23:20:42.923Z,102015.19
2023-02-25T23:23:09.640Z,102022.50
2023-02-25T23:25:39.867Z,102022.72
2023-02-25T23:28:08.769Z,102012.22
2023-02-25T23:30:39.359Z,102019.63
2023-02-25T23:33:06.328Z,102019.88
2023-02-25T23:35:34.024Z,102016.47
2023-02-25T23:38:00.842Z,102015.72
2023-02-25T23:40:28.883Z,102027.50
2023-02-25T23:42:56.280Z,102025.06
2023-02-25T23:45:22.963Z,102034.19
2023-02-25T23:47:49.899Z,102037.94
2023-02-25T23:50:17.674Z,102042.53
2023-02-25T23:52:46.522Z,102039.13
2023-02-25T23:55:14.501Z,102050.81
2023-02-25T23:57:41.050Z,102043.00
